sensor_id;sensor_type;location;lat;lon;timestamp;P1;durP1;ratioP1;P2;durP2;ratioP2
34657;SDS011;20865;43.312;27.152;2022-11-12T00:01:06;22.65;;;9.75;;
34657;SDS011;20865;43.312;27.152;2022-11-12T00:03:34;24.63;;;10.88;;
34657;SDS011;20865;43.312;27.152;2022-11-12T00:06:01;26.20;;;10.50;;
34657;SDS011;20865;43.312;27.152;2022-11-12T00:08:29;23.62;;;10.82;;
34657;SDS011;20865;43.312;27.152;2022-11-12T00:10:57;20.85;;;9.58;;
34657;SDS011;20865;43.312;27.152;2022-11-12T00:13:24;24.50;;;10.58;;
34657;SDS011;20865;43.312;27.152;2022-11-12T00:15:52;28.52;;;11.63;;
34657;SDS011;20865;43.312;27.152;2022-11-12T00:18:19;22.93;;;10.55;;
34657;SDS011;20865;43.312;27.152;2022-11-12T00:20:48;25.00;;;11.12;;
34657;SDS011;20865;43.312;27.152;2022-11-12T00:23:16;24.05;;;10.93;;
34657;SDS011;20865;43.312;27.152;2022-11-12T00:25:43;27.62;;;10.90;;
34657;SDS011;20865;43.312;27.152;2022-11-12T00:28:11;24.45;;;10.93;;
34657;SDS011;20865;43.312;27.152;2022-11-12T00:30:39;26.10;;;11.80;;
34657;SDS011;20865;43.312;27.152;2022-11-12T00:33:07;24.12;;;11.12;;
34657;SDS011;20865;43.312;27.152;2022-11-12T00:35:35;25.90;;;11.93;;
34657;SDS011;20865;43.312;27.152;2022-11-12T00:38:02;24.00;;;11.35;;
34657;SDS011;20865;43.312;27.152;2022-11-12T00:40:30;27.20;;;12.80;;
34657;SDS011;20865;43.312;27.152;2022-11-12T00:42:57;30.92;;;12.23;;
34657;SDS011;20865;43.312;27.152;2022-11-12T00:45:25;27.75;;;11.65;;
34657;SDS011;20865;43.312;27.152;2022-11-12T00:47:53;30.32;;;12.53;;
34657;SDS011;20865;43.312;27.152;2022-11-12T00:50:22;27.73;;;12.35;;
34657;SDS011;20865;43.312;27.152;2022-11-12T00:52:50;28.83;;;12.40;;
34657;SDS011;20865;43.312;27.152;2022-11-12T00:55:19;27.48;;;12.68;;
34657;SDS011;20865;43.312;27.152;2022-11-12T00:57:46;32.55;;;13.00;;
34657;SDS011;20865;43.312;27.152;2022-11-12T01:00:15;31.93;;;13.20;;
34657;SDS011;20865;43.312;27.152;2022-11-12T01:02:44;30.55;;;13.32;;
34657;SDS011;20865;43.312;27.152;2022-11-12T01:05:12;28.25;;;13.05;;
34657;SDS011;20865;43.312;27.152;2022-11-12T01:07:40;29.55;;;12.88;;
34657;SDS011;20865;43.312;27.152;2022-11-12T01:10:08;29.32;;;13.50;;
34657;SDS011;20865;43.312;27.152;2022-11-12T01:12:37;28.73;;;12.70;;
34657;SDS011;20865;43.312;27.152;2022-11-12T01:15:05;31.50;;;12.45;;
34657;SDS011;20865;43.312;27.152;2022-11-12T01:17:33;30.65;;;13.15;;
34657;SDS011;20865;43.312;27.152;2022-11-12T01:20:01;26.05;;;12.45;;
34657;SDS011;20865;43.312;27.152;2022-11-12T01:22:28;28.75;;;13.43;;
34657;SDS011;20865;43.312;27.152;2022-11-12T01:24:56;26.57;;;12.37;;
34657;SDS011;20865;43.312;27.152;2022-11-12T01:27:24;31.45;;;12.75;;
34657;SDS011;20865;43.312;27.152;2022-11-12T01:29:51;32.17;;;14.83;;
34657;SDS011;20865;43.312;27.152;2022-11-12T01:32:19;28.12;;;12.60;;
34657;SDS011;20865;43.312;27.152;2022-11-12T01:34:46;34.35;;;13.72;;
34657;SDS011;20865;43.312;27.152;2022-11-12T01:37:15;30.08;;;13.35;;
34657;SDS011;20865;43.312;27.152;2022-11-12T01:39:43;30.68;;;13.25;;
34657;SDS011;20865;43.312;27.152;2022-11-12T01:42:10;29.65;;;12.25;;
34657;SDS011;20865;43.312;27.152;2022-11-12T01:44:39;34.50;;;13.43;;
34657;SDS011;20865;43.312;27.152;2022-11-12T01:50:06;28.63;;;13.50;;
34657;SDS011;20865;43.312;27.152;2022-11-12T01:52:55;29.63;;;12.35;;
34657;SDS011;20865;43.312;27.152;2022-11-12T01:55:25;31.35;;;13.13;;
34657;SDS011;20865;43.312;27.152;2022-11-12T02:00:30;26.52;;;12.28;;
34657;SDS011;20865;43.312;27.152;2022-11-12T02:02:58;28.60;;;13.13;;
34657;SDS011;20865;43.312;27.152;2022-11-12T02:05:28;27.55;;;13.22;;
34657;SDS011;20865;43.312;27.152;2022-11-12T02:07:56;27.85;;;12.50;;
34657;SDS011;20865;43.312;27.152;2022-11-12T02:10:26;32.38;;;13.18;;
34657;SDS011;20865;43.312;27.152;2022-11-12T02:12:54;29.67;;;11.75;;
34657;SDS011;20865;43.312;27.152;2022-11-12T02:15:41;26.90;;;11.55;;
34657;SDS011;20865;43.312;27.152;2022-11-12T02:18:09;32.65;;;13.62;;
34657;SDS011;20865;43.312;27.152;2022-11-12T02:20:36;29.18;;;13.22;;
34657;SDS011;20865;43.312;27.152;2022-11-12T02:23:11;28.10;;;11.93;;
34657;SDS011;20865;43.312;27.152;2022-11-12T02:25:38;32.67;;;12.73;;
34657;SDS011;20865;43.312;27.152;2022-11-12T02:28:06;30.20;;;13.53;;
34657;SDS011;20865;43.312;27.152;2022-11-12T02:30:36;29.27;;;12.78;;
34657;SDS011;20865;43.312;27.152;2022-11-12T02:33:05;30.45;;;13.35;;
34657;SDS011;20865;43.312;27.152;2022-11-12T02:35:33;31.20;;;13.00;;
34657;SDS011;20865;43.312;27.152;2022-11-12T02:38:00;31.23;;;14.28;;
34657;SDS011;20865;43.312;27.152;2022-11-12T02:40:28;31.73;;;13.90;;
34657;SDS011;20865;43.312;27.152;2022-11-12T02:42:56;35.38;;;14.55;;
34657;SDS011;20865;43.312;27.152;2022-11-12T02:45:24;32.90;;;13.10;;
34657;SDS011;20865;43.312;27.152;2022-11-12T02:47:52;36.40;;;14.85;;
34657;SDS011;20865;43.312;27.152;2022-11-12T02:50:20;25.62;;;12.47;;
34657;SDS011;20865;43.312;27.152;2022-11-12T02:52:48;32.75;;;13.60;;
34657;SDS011;20865;43.312;27.152;2022-11-12T02:55:15;31.50;;;12.20;;
34657;SDS011;20865;43.312;27.152;2022-11-12T02:57:43;33.10;;;13.90;;
34657;SDS011;20865;43.312;27.152;2022-11-12T03:00:11;31.55;;;14.23;;
34657;SDS011;20865;43.312;27.152;2022-11-12T03:02:39;31.25;;;13.60;;
34657;SDS011;20865;43.312;27.152;2022-11-12T03:05:11;31.97;;;14.33;;
34657;SDS011;20865;43.312;27.152;2022-11-12T03:07:39;30.00;;;13.15;;
34657;SDS011;20865;43.312;27.152;2022-11-12T03:10:06;33.28;;;12.95;;
34657;SDS011;20865;43.312;27.152;2022-11-12T03:12:34;32.70;;;13.68;;
34657;SDS011;20865;43.312;27.152;2022-11-12T03:15:02;30.25;;;12.98;;
34657;SDS011;20865;43.312;27.152;2022-11-12T03:17:30;33.45;;;14.43;;
34657;SDS011;20865;43.312;27.152;2022-11-12T03:19:59;32.65;;;14.47;;
34657;SDS011;20865;43.312;27.152;2022-11-12T03:22:26;32.20;;;12.58;;
34657;SDS011;20865;43.312;27.152;2022-11-12T03:24:54;33.33;;;14.18;;
34657;SDS011;20865;43.312;27.152;2022-11-12T03:27:21;36.88;;;17.15;;
34657;SDS011;20865;43.312;27.152;2022-11-12T03:29:49;34.33;;;17.37;;
34657;SDS011;20865;43.312;27.152;2022-11-12T03:32:17;31.10;;;13.28;;
34657;SDS011;20865;43.312;27.152;2022-11-12T03:34:44;33.23;;;13.98;;
34657;SDS011;20865;43.312;27.152;2022-11-12T03:37:12;24.65;;;12.63;;
34657;SDS011;20865;43.312;27.152;2022-11-12T03:39:39;33.63;;;14.05;;
34657;SDS011;20865;43.312;27.152;2022-11-12T03:42:07;30.25;;;12.30;;
34657;SDS011;20865;43.312;27.152;2022-11-12T03:44:35;35.08;;;14.07;;
34657;SDS011;20865;43.312;27.152;2022-11-12T03:47:02;33.13;;;14.83;;
34657;SDS011;20865;43.312;27.152;2022-11-12T03:49:30;29.45;;;13.38;;
34657;SDS011;20865;43.312;27.152;2022-11-12T03:51:57;35.52;;;14.50;;
34657;SDS011;20865;43.312;27.152;2022-11-12T03:54:25;34.83;;;14.98;;
34657;SDS011;20865;43.312;27.152;2022-11-12T03:56:52;34.38;;;14.50;;
34657;SDS011;20865;43.312;27.152;2022-11-12T03:59:20;31.10;;;13.38;;
34657;SDS011;20865;43.312;27.152;2022-11-12T04:01:47;37.20;;;14.35;;
34657;SDS011;20865;43.312;27.152;2022-11-12T04:04:15;31.48;;;13.80;;
34657;SDS011;20865;43.312;27.152;2022-11-12T04:06:43;30.55;;;13.55;;
34657;SDS011;20865;43.312;27.152;2022-11-12T04:09:28;33.80;;;13.90;;
34657;SDS011;20865;43.312;27.152;2022-11-12T04:11:55;31.68;;;14.20;;
34657;SDS011;20865;43.312;27.152;2022-11-12T04:14:25;39.23;;;15.85;;
34657;SDS011;20865;43.312;27.152;2022-11-12T04:16:52;34.85;;;14.70;;
34657;SDS011;20865;43.312;27.152;2022-11-12T04:19:38;40.08;;;15.98;;
34657;SDS011;20865;43.312;27.152;2022-11-12T04:22:23;31.33;;;14.28;;
34657;SDS011;20865;43.312;27.152;2022-11-12T04:24:51;33.30;;;15.23;;
34657;SDS011;20865;43.312;27.152;2022-11-12T04:27:37;30.40;;;13.85;;
34657;SDS011;20865;43.312;27.152;2022-11-12T04:30:06;37.20;;;15.00;;
34657;SDS011;20865;43.312;27.152;2022-11-12T04:35:19;32.75;;;14.43;;
34657;SDS011;20865;43.312;27.152;2022-11-12T04:37:48;35.95;;;14.20;;
34657;SDS011;20865;43.312;27.152;2022-11-12T04:40:18;35.75;;;14.63;;
34657;SDS011;20865;43.312;27.152;2022-11-12T04:43:05;30.12;;;12.70;;
34657;SDS011;20865;43.312;27.152;2022-11-12T04:45:53;28.35;;;12.30;;
34657;SDS011;20865;43.312;27.152;2022-11-12T04:48:21;31.20;;;12.80;;
34657;SDS011;20865;43.312;27.152;2022-11-12T04:51:02;27.82;;;12.15;;
34657;SDS011;20865;43.312;27.152;2022-11-12T04:53:26;32.38;;;12.98;;
34657;SDS011;20865;43.312;27.152;2022-11-12T04:55:56;28.90;;;12.25;;
34657;SDS011;20865;43.312;27.152;2022-11-12T04:58:24;29.25;;;13.43;;
34657;SDS011;20865;43.312;27.152;2022-11-12T05:00:52;30.88;;;13.32;;
34657;SDS011;20865;43.312;27.152;2022-11-12T05:03:19;49.73;;;17.75;;
34657;SDS011;20865;43.312;27.152;2022-11-12T05:05:47;41.85;;;16.37;;
34657;SDS011;20865;43.312;27.152;2022-11-12T05:08:14;26.70;;;12.28;;
34657;SDS011;20865;43.312;27.152;2022-11-12T05:10:43;21.48;;;10.25;;
34657;SDS011;20865;43.312;27.152;2022-11-12T05:13:10;23.30;;;9.80;;
34657;SDS011;20865;43.312;27.152;2022-11-12T05:15:38;24.95;;;11.18;;
34657;SDS011;20865;43.312;27.152;2022-11-12T05:18:05;28.60;;;12.18;;
34657;SDS011;20865;43.312;27.152;2022-11-12T05:20:33;26.07;;;11.53;;
34657;SDS011;20865;43.312;27.152;2022-11-12T05:23:01;29.57;;;12.75;;
34657;SDS011;20865;43.312;27.152;2022-11-12T05:25:29;22.58;;;11.08;;
34657;SDS011;20865;43.312;27.152;2022-11-12T05:27:56;26.93;;;10.23;;
34657;SDS011;20865;43.312;27.152;2022-11-12T05:30:24;26.40;;;11.05;;
34657;SDS011;20865;43.312;27.152;2022-11-12T05:32:51;24.90;;;10.72;;
34657;SDS011;20865;43.312;27.152;2022-11-12T05:35:19;72.55;;;22.37;;
34657;SDS011;20865;43.312;27.152;2022-11-12T05:37:46;33.95;;;14.18;;
34657;SDS011;20865;43.312;27.152;2022-11-12T05:40:14;33.53;;;13.70;;
34657;SDS011;20865;43.312;27.152;2022-11-12T05:42:43;32.38;;;14.05;;
34657;SDS011;20865;43.312;27.152;2022-11-12T05:45:11;34.50;;;14.73;;
34657;SDS011;20865;43.312;27.152;2022-11-12T05:47:38;30.55;;;13.20;;
34657;SDS011;20865;43.312;27.152;2022-11-12T05:50:06;30.52;;;12.65;;
34657;SDS011;20865;43.312;27.152;2022-11-12T05:52:34;32.63;;;12.00;;
34657;SDS011;20865;43.312;27.152;2022-11-12T05:55:02;30.52;;;11.45;;
34657;SDS011;20865;43.312;27.152;2022-11-12T05:57:29;26.75;;;11.63;;
34657;SDS011;20865;43.312;27.152;2022-11-12T05:59:57;28.98;;;11.38;;
34657;SDS011;20865;43.312;27.152;2022-11-12T06:02:25;26.80;;;11.12;;
34657;SDS011;20865;43.312;27.152;2022-11-12T06:04:52;36.35;;;13.80;;
34657;SDS011;20865;43.312;27.152;2022-11-12T06:07:20;36.20;;;13.43;;
34657;SDS011;20865;43.312;27.152;2022-11-12T06:09:47;29.30;;;12.47;;
34657;SDS011;20865;43.312;27.152;2022-11-12T06:12:15;27.95;;;10.78;;
34657;SDS011;20865;43.312;27.152;2022-11-12T06:14:42;26.97;;;10.82;;
34657;SDS011;20865;43.312;27.152;2022-11-12T06:17:10;26.02;;;12.25;;
34657;SDS011;20865;43.312;27.152;2022-11-12T06:19:38;25.35;;;10.08;;
34657;SDS011;20865;43.312;27.152;2022-11-12T06:22:05;26.45;;;11.38;;
34657;SDS011;20865;43.312;27.152;2022-11-12T06:24:34;24.72;;;10.50;;
34657;SDS011;20865;43.312;27.152;2022-11-12T06:27:02;24.25;;;10.18;;
34657;SDS011;20865;43.312;27.152;2022-11-12T06:29:30;23.87;;;10.18;;
34657;SDS011;20865;43.312;27.152;2022-11-12T06:31:57;27.15;;;11.15;;
34657;SDS011;20865;43.312;27.152;2022-11-12T06:34:25;26.37;;;11.38;;
34657;SDS011;20865;43.312;27.152;2022-11-12T06:36:52;25.68;;;11.75;;
34657;SDS011;20865;43.312;27.152;2022-11-12T06:39:20;24.80;;;11.88;;
34657;SDS011;20865;43.312;27.152;2022-11-12T06:41:47;26.77;;;11.57;;
34657;SDS011;20865;43.312;27.152;2022-11-12T06:44:15;29.20;;;12.95;;
34657;SDS011;20865;43.312;27.152;2022-11-12T06:46:42;28.60;;;12.53;;
34657;SDS011;20865;43.312;27.152;2022-11-12T06:49:10;28.23;;;11.48;;
34657;SDS011;20865;43.312;27.152;2022-11-12T06:51:38;31.00;;;11.90;;
34657;SDS011;20865;43.312;27.152;2022-11-12T06:54:06;26.37;;;11.15;;
34657;SDS011;20865;43.312;27.152;2022-11-12T06:56:33;29.63;;;11.25;;
34657;SDS011;20865;43.312;27.152;2022-11-12T06:59:01;28.83;;;11.63;;
34657;SDS011;20865;43.312;27.152;2022-11-12T07:01:29;36.50;;;11.57;;
34657;SDS011;20865;43.312;27.152;2022-11-12T07:03:56;25.92;;;10.08;;
34657;SDS011;20865;43.312;27.152;2022-11-12T07:06:24;28.02;;;10.63;;
34657;SDS011;20865;43.312;27.152;2022-11-12T07:08:51;26.10;;;11.45;;
34657;SDS011;20865;43.312;27.152;2022-11-12T07:11:19;24.57;;;11.15;;
34657;SDS011;20865;43.312;27.152;2022-11-12T07:13:47;28.52;;;11.85;;
34657;SDS011;20865;43.312;27.152;2022-11-12T07:16:15;23.27;;;9.60;;
34657;SDS011;20865;43.312;27.152;2022-11-12T07:18:43;24.00;;;11.33;;
34657;SDS011;20865;43.312;27.152;2022-11-12T07:21:21;25.92;;;11.35;;
34657;SDS011;20865;43.312;27.152;2022-11-12T07:23:46;24.70;;;11.43;;
34657;SDS011;20865;43.312;27.152;2022-11-12T07:26:15;26.40;;;11.75;;
34657;SDS011;20865;43.312;27.152;2022-11-12T07:28:44;25.85;;;11.85;;
34657;SDS011;20865;43.312;27.152;2022-11-12T07:31:13;29.15;;;12.07;;
34657;SDS011;20865;43.312;27.152;2022-11-12T07:33:41;27.25;;;10.78;;
34657;SDS011;20865;43.312;27.152;2022-11-12T07:36:13;21.45;;;10.25;;
34657;SDS011;20865;43.312;27.152;2022-11-12T07:38:42;26.30;;;11.15;;
34657;SDS011;20865;43.312;27.152;2022-11-12T07:41:12;24.25;;;11.20;;
34657;SDS011;20865;43.312;27.152;2022-11-12T07:43:42;25.80;;;11.45;;
34657;SDS011;20865;43.312;27.152;2022-11-12T07:46:11;26.00;;;11.10;;
34657;SDS011;20865;43.312;27.152;2022-11-12T07:48:41;29.00;;;11.55;;
34657;SDS011;20865;43.312;27.152;2022-11-12T07:51:13;27.00;;;11.03;;
34657;SDS011;20865;43.312;27.152;2022-11-12T07:53:43;27.07;;;10.88;;
34657;SDS011;20865;43.312;27.152;2022-11-12T07:56:13;23.20;;;10.75;;
34657;SDS011;20865;43.312;27.152;2022-11-12T07:58:45;21.93;;;11.33;;
34657;SDS011;20865;43.312;27.152;2022-11-12T08:01:35;24.52;;;10.93;;
34657;SDS011;20865;43.312;27.152;2022-11-12T08:04:04;34.70;;;14.75;;
34657;SDS011;20865;43.312;27.152;2022-11-12T08:06:33;32.63;;;12.58;;
34657;SDS011;20865;43.312;27.152;2022-11-12T08:09:03;29.52;;;12.18;;
34657;SDS011;20865;43.312;27.152;2022-11-12T08:11:32;27.40;;;11.70;;
34657;SDS011;20865;43.312;27.152;2022-11-12T08:14:01;25.25;;;10.95;;
34657;SDS011;20865;43.312;27.152;2022-11-12T08:16:29;25.48;;;11.50;;
34657;SDS011;20865;43.312;27.152;2022-11-12T08:18:57;25.97;;;10.93;;
34657;SDS011;20865;43.312;27.152;2022-11-12T08:21:25;21.70;;;10.68;;
34657;SDS011;20865;43.312;27.152;2022-11-12T08:23:54;24.87;;;11.63;;
34657;SDS011;20865;43.312;27.152;2022-11-12T08:26:22;23.05;;;11.55;;
34657;SDS011;20865;43.312;27.152;2022-11-12T08:28:50;27.73;;;9.80;;
34657;SDS011;20865;43.312;27.152;2022-11-12T08:31:19;23.50;;;9.90;;
34657;SDS011;20865;43.312;27.152;2022-11-12T08:33:48;20.77;;;9.55;;
34657;SDS011;20865;43.312;27.152;2022-11-12T08:36:16;21.23;;;10.23;;
34657;SDS011;20865;43.312;27.152;2022-11-12T08:38:44;23.30;;;10.55;;
34657;SDS011;20865;43.312;27.152;2022-11-12T08:41:12;23.80;;;10.70;;
34657;SDS011;20865;43.312;27.152;2022-11-12T08:43:42;23.15;;;9.45;;
34657;SDS011;20865;43.312;27.152;2022-11-12T08:46:09;22.30;;;9.98;;
34657;SDS011;20865;43.312;27.152;2022-11-12T08:48:37;27.37;;;10.70;;
34657;SDS011;20865;43.312;27.152;2022-11-12T08:51:06;16.95;;;8.78;;
34657;SDS011;20865;43.312;27.152;2022-11-12T08:53:33;18.80;;;9.15;;
34657;SDS011;20865;43.312;27.152;2022-11-12T08:56:01;25.27;;;9.45;;
34657;SDS011;20865;43.312;27.152;2022-11-12T08:58:29;24.00;;;10.50;;
34657;SDS011;20865;43.312;27.152;2022-11-12T09:01:02;21.75;;;10.20;;
34657;SDS011;20865;43.312;27.152;2022-11-12T09:03:30;24.60;;;12.30;;
34657;SDS011;20865;43.312;27.152;2022-11-12T09:06:00;27.00;;;12.63;;
34657;SDS011;20865;43.312;27.152;2022-11-12T09:08:31;23.77;;;11.40;;
34657;SDS011;20865;43.312;27.152;2022-11-12T09:11:01;24.20;;;11.08;;
34657;SDS011;20865;43.312;27.152;2022-11-12T09:13:28;29.70;;;13.60;;
34657;SDS011;20865;43.312;27.152;2022-11-12T09:16:00;30.08;;;14.23;;
34657;SDS011;20865;43.312;27.152;2022-11-12T09:18:29;32.48;;;14.33;;
34657;SDS011;20865;43.312;27.152;2022-11-12T09:20:58;35.30;;;14.95;;
34657;SDS011;20865;43.312;27.152;2022-11-12T09:23:27;33.95;;;15.60;;
34657;SDS011;20865;43.312;27.152;2022-11-12T09:25:55;26.10;;;11.68;;
34657;SDS011;20865;43.312;27.152;2022-11-12T09:28:23;30.43;;;13.78;;
34657;SDS011;20865;43.312;27.152;2022-11-12T09:30:51;24.07;;;11.55;;
34657;SDS011;20865;43.312;27.152;2022-11-12T09:33:25;61.65;;;25.52;;
34657;SDS011;20865;43.312;27.152;2022-11-12T09:35:53;66.15;;;26.73;;
34657;SDS011;20865;43.312;27.152;2022-11-12T09:38:21;30.88;;;14.43;;
34657;SDS011;20865;43.312;27.152;2022-11-12T09:43:29;23.38;;;9.50;;
34657;SDS011;20865;43.312;27.152;2022-11-12T09:46:00;20.17;;;9.58;;
34657;SDS011;20865;43.312;27.152;2022-11-12T09:48:34;19.62;;;9.48;;
34657;SDS011;20865;43.312;27.152;2022-11-12T09:51:06;23.90;;;11.57;;
34657;SDS011;20865;43.312;27.152;2022-11-12T09:53:43;20.35;;;10.70;;
34657;SDS011;20865;43.312;27.152;2022-11-12T09:56:18;19.25;;;9.05;;
34657;SDS011;20865;43.312;27.152;2022-11-12T09:58:46;22.07;;;8.25;;
34657;SDS011;20865;43.312;27.152;2022-11-12T10:07:22;24.02;;;8.15;;
34657;SDS011;20865;43.312;27.152;2022-11-12T10:09:08;19.05;;;8.43;;
34657;SDS011;20865;43.312;27.152;2022-11-12T10:20:55;13.08;;;7.20;;
34657;SDS011;20865;43.312;27.152;2022-11-12T10:23:41;14.07;;;6.72;;
34657;SDS011;20865;43.312;27.152;2022-11-12T10:26:11;14.68;;;7.62;;
34657;SDS011;20865;43.312;27.152;2022-11-12T10:28:43;13.62;;;6.58;;
34657;SDS011;20865;43.312;27.152;2022-11-12T10:31:20;11.60;;;6.20;;
34657;SDS011;20865;43.312;27.152;2022-11-12T10:33:48;14.07;;;6.12;;
34657;SDS011;20865;43.312;27.152;2022-11-12T10:38:52;11.97;;;6.03;;
34657;SDS011;20865;43.312;27.152;2022-11-12T10:41:24;18.82;;;6.80;;
34657;SDS011;20865;43.312;27.152;2022-11-12T10:44:09;27.30;;;10.65;;
34657;SDS011;20865;43.312;27.152;2022-11-12T10:46:35;11.83;;;6.15;;
34657;SDS011;20865;43.312;27.152;2022-11-12T10:49:20;16.40;;;7.33;;
34657;SDS011;20865;43.312;27.152;2022-11-12T10:51:44;18.17;;;8.18;;
34657;SDS011;20865;43.312;27.152;2022-11-12T10:54:28;16.77;;;8.60;;
34657;SDS011;20865;43.312;27.152;2022-11-12T10:56:56;26.62;;;11.28;;
34657;SDS011;20865;43.312;27.152;2022-11-12T10:59:28;19.23;;;9.98;;
34657;SDS011;20865;43.312;27.152;2022-11-12T11:01:58;23.70;;;10.23;;
34657;SDS011;20865;43.312;27.152;2022-11-12T11:04:27;17.52;;;8.53;;
34657;SDS011;20865;43.312;27.152;2022-11-12T11:07:04;19.32;;;8.13;;
34657;SDS011;20865;43.312;27.152;2022-11-12T11:09:33;17.25;;;8.48;;
34657;SDS011;20865;43.312;27.152;2022-11-12T11:12:01;16.23;;;7.42;;
34657;SDS011;20865;43.312;27.152;2022-11-12T11:14:34;18.37;;;9.10;;
34657;SDS011;20865;43.312;27.152;2022-11-12T11:17:02;41.55;;;13.98;;
34657;SDS011;20865;43.312;27.152;2022-11-12T11:19:40;42.95;;;16.20;;
34657;SDS011;20865;43.312;27.152;2022-11-12T11:22:13;51.30;;;15.55;;
34657;SDS011;20865;43.312;27.152;2022-11-12T11:30:26;50.58;;;20.65;;
34657;SDS011;20865;43.312;27.152;2022-11-12T11:52:28;20.08;;;9.80;;
34657;SDS011;20865;43.312;27.152;2022-11-12T11:57:24;25.10;;;11.73;;
34657;SDS011;20865;43.312;27.152;2022-11-12T12:11:01;22.55;;;11.08;;
34657;SDS011;20865;43.312;27.152;2022-11-12T12:13:54;26.30;;;12.40;;
34657;SDS011;20865;43.312;27.152;2022-11-12T12:19:17;31.45;;;11.97;;
34657;SDS011;20865;43.312;27.152;2022-11-12T12:21:54;33.92;;;12.33;;
34657;SDS011;20865;43.312;27.152;2022-11-12T12:24:26;31.27;;;15.08;;
34657;SDS011;20865;43.312;27.152;2022-11-12T12:27:11;25.72;;;12.20;;
34657;SDS011;20865;43.312;27.152;2022-11-12T12:29:45;59.08;;;24.27;;
34657;SDS011;20865;43.312;27.152;2022-11-12T12:32:20;38.02;;;16.25;;
34657;SDS011;20865;43.312;27.152;2022-11-12T12:35:12;24.27;;;11.73;;
34657;SDS011;20865;43.312;27.152;2022-11-12T12:43:26;35.70;;;15.90;;
34657;SDS011;20865;43.312;27.152;2022-11-12T12:45:53;39.67;;;19.25;;
34657;SDS011;20865;43.312;27.152;2022-11-12T12:48:26;31.27;;;13.65;;
34657;SDS011;20865;43.312;27.152;2022-11-12T12:50:58;33.95;;;15.58;;
34657;SDS011;20865;43.312;27.152;2022-11-12T12:56:01;31.82;;;13.32;;
34657;SDS011;20865;43.312;27.152;2022-11-12T12:58:41;27.32;;;14.15;;
34657;SDS011;20865;43.312;27.152;2022-11-12T13:06:33;29.05;;;13.48;;
34657;SDS011;20865;43.312;27.152;2022-11-12T13:17:09;24.23;;;12.00;;
34657;SDS011;20865;43.312;27.152;2022-11-12T13:22:33;29.75;;;12.82;;
34657;SDS011;20865;43.312;27.152;2022-11-12T13:32:55;38.95;;;17.73;;
34657;SDS011;20865;43.312;27.152;2022-11-12T13:35:33;42.67;;;20.08;;
34657;SDS011;20865;43.312;27.152;2022-11-12T13:40:50;23.47;;;11.53;;
34657;SDS011;20865;43.312;27.152;2022-11-12T13:43:33;23.47;;;11.78;;
34657;SDS011;20865;43.312;27.152;2022-11-12T13:46:29;32.98;;;15.25;;
34657;SDS011;20865;43.312;27.152;2022-11-12T13:56:54;44.85;;;19.55;;
34657;SDS011;20865;43.312;27.152;2022-11-12T13:59:26;54.48;;;23.02;;
34657;SDS011;20865;43.312;27.152;2022-11-12T14:01:54;28.77;;;13.98;;
34657;SDS011;20865;43.312;27.152;2022-11-12T14:04:28;25.55;;;10.78;;
34657;SDS011;20865;43.312;27.152;2022-11-12T14:07:05;19.92;;;9.70;;
34657;SDS011;20865;43.312;27.152;2022-11-12T14:09:46;27.77;;;11.93;;
34657;SDS011;20865;43.312;27.152;2022-11-12T14:21:20;41.33;;;20.82;;
34657;SDS011;20865;43.312;27.152;2022-11-12T14:23:51;43.05;;;20.10;;
34657;SDS011;20865;43.312;27.152;2022-11-12T14:29:27;38.08;;;15.63;;
34657;SDS011;20865;43.312;27.152;2022-11-12T14:31:46;48.65;;;17.90;;
34657;SDS011;20865;43.312;27.152;2022-11-12T14:37:22;47.00;;;18.35;;
34657;SDS011;20865;43.312;27.152;2022-11-12T14:39:28;47.35;;;17.82;;
34657;SDS011;20865;43.312;27.152;2022-11-12T14:42:00;36.73;;;18.45;;
34657;SDS011;20865;43.312;27.152;2022-11-12T14:44:33;32.48;;;17.02;;
34657;SDS011;20865;43.312;27.152;2022-11-12T14:49:48;32.17;;;15.18;;
34657;SDS011;20865;43.312;27.152;2022-11-12T14:52:27;50.58;;;22.82;;
34657;SDS011;20865;43.312;27.152;2022-11-12T14:55:06;35.63;;;18.27;;
34657;SDS011;20865;43.312;27.152;2022-11-12T14:57:38;44.30;;;19.27;;
34657;SDS011;20865;43.312;27.152;2022-11-12T15:00:16;57.80;;;25.10;;
34657;SDS011;20865;43.312;27.152;2022-11-12T15:02:49;55.12;;;25.12;;
34657;SDS011;20865;43.312;27.152;2022-11-12T15:05:17;54.95;;;25.55;;
34657;SDS011;20865;43.312;27.152;2022-11-12T15:07:57;71.33;;;35.50;;
34657;SDS011;20865;43.312;27.152;2022-11-12T15:15:34;50.43;;;25.30;;
34657;SDS011;20865;43.312;27.152;2022-11-12T15:18:05;60.45;;;28.32;;
34657;SDS011;20865;43.312;27.152;2022-11-12T15:20:35;58.52;;;26.75;;
34657;SDS011;20865;43.312;27.152;2022-11-12T15:23:02;61.77;;;28.67;;
34657;SDS011;20865;43.312;27.152;2022-11-12T15:25:31;51.13;;;24.70;;
34657;SDS011;20865;43.312;27.152;2022-11-12T15:31:01;52.08;;;23.83;;
34657;SDS011;20865;43.312;27.152;2022-11-12T15:33:33;42.23;;;17.65;;
34657;SDS011;20865;43.312;27.152;2022-11-12T15:36:01;38.95;;;17.45;;
34657;SDS011;20865;43.312;27.152;2022-11-12T15:38:31;38.17;;;17.27;;
34657;SDS011;20865;43.312;27.152;2022-11-12T15:41:02;37.75;;;17.87;;
34657;SDS011;20865;43.312;27.152;2022-11-12T15:43:33;38.28;;;17.32;;
34657;SDS011;20865;43.312;27.152;2022-11-12T15:46:03;40.67;;;18.77;;
34657;SDS011;20865;43.312;27.152;2022-11-12T15:48:31;35.80;;;17.20;;
34657;SDS011;20865;43.312;27.152;2022-11-12T15:50:58;58.95;;;23.70;;
34657;SDS011;20865;43.312;27.152;2022-11-12T15:53:26;75.08;;;38.63;;
34657;SDS011;20865;43.312;27.152;2022-11-12T15:55:57;51.05;;;26.15;;
34657;SDS011;20865;43.312;27.152;2022-11-12T15:58:29;56.10;;;29.30;;
34657;SDS011;20865;43.312;27.152;2022-11-12T16:01:02;39.90;;;21.05;;
34657;SDS011;20865;43.312;27.152;2022-11-12T16:03:30;32.83;;;16.30;;
34657;SDS011;20865;43.312;27.152;2022-11-12T16:05:58;38.53;;;18.82;;
34657;SDS011;20865;43.312;27.152;2022-11-12T16:08:26;44.25;;;20.92;;
34657;SDS011;20865;43.312;27.152;2022-11-12T16:10:54;54.13;;;22.22;;
34657;SDS011;20865;43.312;27.152;2022-11-12T16:13:28;49.00;;;20.30;;
34657;SDS011;20865;43.312;27.152;2022-11-12T16:15:59;57.45;;;21.82;;
34657;SDS011;20865;43.312;27.152;2022-11-12T16:18:30;65.28;;;26.70;;
34657;SDS011;20865;43.312;27.152;2022-11-12T16:20:57;54.65;;;22.85;;
34657;SDS011;20865;43.312;27.152;2022-11-12T16:23:25;54.25;;;23.32;;
34657;SDS011;20865;43.312;27.152;2022-11-12T16:25:52;47.17;;;19.52;;
34657;SDS011;20865;43.312;27.152;2022-11-12T16:28:20;47.15;;;19.62;;
34657;SDS011;20865;43.312;27.152;2022-11-12T16:30:48;39.95;;;16.23;;
34657;SDS011;20865;43.312;27.152;2022-11-12T16:33:15;41.68;;;17.75;;
34657;SDS011;20865;43.312;27.152;2022-11-12T16:35:43;36.08;;;16.65;;
34657;SDS011;20865;43.312;27.152;2022-11-12T16:38:12;50.58;;;20.60;;
34657;SDS011;20865;43.312;27.152;2022-11-12T16:40:41;43.58;;;20.40;;
34657;SDS011;20865;43.312;27.152;2022-11-12T16:43:09;39.88;;;17.62;;
34657;SDS011;20865;43.312;27.152;2022-11-12T16:45:38;40.10;;;19.05;;